sensor_id;sensor_type;location;lat;lon;timestamp;pressure;altitude;pressure_sealevel;temperature;humidity
42761;BME280;31672;47.638;19.026;2022-09-23T00:04:19;100529.53;;;6.34;77.28
42761;BME280;31672;47.638;19.026;2022-09-23T00:09:22;100530.28;;;6.36;77.44
42761;BME280;31672;47.638;19.026;2022-09-23T00:14:25;100524.00;;;6.37;77.40
42761;BME280;31672;47.638;19.026;2022-09-23T00:19:29;100516.53;;;6.42;77.65
42761;BME280;31672;47.638;19.026;2022-09-23T00:24:31;100521.41;;;6.47;77.40
42761;BME280;31672;47.638;19.026;2022-09-23T00:29:34;100505.44;;;6.49;77.51
42761;BME280;31672;47.638;19.026;2022-09-23T00:34:38;100507.13;;;6.50;77.21
42761;BME280;31672;47.638;19.026;2022-09-23T00:39:40;100503.75;;;6.48;77.57
42761;BME280;31672;47.638;19.026;2022-09-23T00:44:50;100505.16;;;6.42;77.58
42761;BME280;31672;47.638;19.026;2022-09-23T00:50:11;100503.59;;;6.39;77.38
42761;BME280;31672;47.638;19.026;2022-09-23T00:55:39;100498.00;;;6.33;77.53
42761;BME280;31672;47.638;19.026;2022-09-23T01:00:41;100507.81;;;6.21;77.42
42761;BME280;31672;47.638;19.026;2022-09-23T01:05:43;100500.72;;;6.12;77.45
42761;BME280;31672;47.638;19.026;2022-09-23T01:21:56;100513.72;;;5.83;77.65
42761;BME280;31672;47.638;19.026;2022-09-23T01:32:38;100504.25;;;5.59;78.21
42761;BME280;31672;47.638;19.026;2022-09-23T01:43:05;100509.81;;;5.45;78.72
42761;BME280;31672;47.638;19.026;2022-09-23T02:04:14;100502.38;;;5.29;79.99
42761;BME280;31672;47.638;19.026;2022-09-23T02:09:24;100496.97;;;5.31;80.40
42761;BME280;31672;47.638;19.026;2022-09-23T02:14:32;100494.09;;;5.34;80.83
42761;BME280;31672;47.638;19.026;2022-09-23T02:19:46;100492.03;;;5.37;80.89
42761;BME280;31672;47.638;19.026;2022-09-23T02:24:49;100488.19;;;5.42;81.05
42761;BME280;31672;47.638;19.026;2022-09-23T02:40:23;100492.94;;;5.48;81.85
42761;BME280;31672;47.638;19.026;2022-09-23T02:45:28;100497.63;;;5.44;81.56
42761;BME280;31672;47.638;19.026;2022-09-23T02:50:31;100498.59;;;5.43;81.71
42761;BME280;31672;47.638;19.026;2022-09-23T02:55:35;100504.97;;;5.41;81.72
42761;BME280;31672;47.638;19.026;2022-09-23T03:01:06;100503.41;;;5.38;81.84
42761;BME280;31672;47.638;19.026;2022-09-23T03:11:48;100497.94;;;5.30;82.10
42761;BME280;31672;47.638;19.026;2022-09-23T03:22:41;100497.66;;;5.33;82.82
42761;BME280;31672;47.638;19.026;2022-09-23T03:27:46;100496.72;;;5.34;82.93
42761;BME280;31672;47.638;19.026;2022-09-23T03:32:49;100503.41;;;5.38;83.11
42761;BME280;31672;47.638;19.026;2022-09-23T03:38:28;100504.81;;;5.42;83.12
42761;BME280;31672;47.638;19.026;2022-09-23T03:43:23;100498.00;;;5.40;83.13
42761;BME280;31672;47.638;19.026;2022-09-23T03:48:26;100491.69;;;5.31;83.02
42761;BME280;31672;47.638;19.026;2022-09-23T03:53:28;100484.91;;;5.28;83.06
42761;BME280;31672;47.638;19.026;2022-09-23T03:58:31;100485.28;;;5.24;83.18
42761;BME280;31672;47.638;19.026;2022-09-23T04:03:34;100492.34;;;5.23;83.05
42761;BME280;31672;47.638;19.026;2022-09-23T04:08:37;100491.88;;;5.18;83.10
42761;BME280;31672;47.638;19.026;2022-09-23T04:13:40;100493.69;;;5.18;83.40
42761;BME280;31672;47.638;19.026;2022-09-23T04:18:43;100498.13;;;5.17;83.53
42761;BME280;31672;47.638;19.026;2022-09-23T04:23:46;100494.50;;;5.18;83.89
42761;BME280;31672;47.638;19.026;2022-09-23T04:28:48;100507.69;;;5.18;83.78
42761;BME280;31672;47.638;19.026;2022-09-23T04:33:52;100503.28;;;5.07;83.48
42761;BME280;31672;47.638;19.026;2022-09-23T04:38:55;100508.91;;;5.03;83.78
42761;BME280;31672;47.638;19.026;2022-09-23T04:43:57;100501.97;;;5.02;84.26
42761;BME280;31672;47.638;19.026;2022-09-23T04:49:01;100512.28;;;5.05;84.34
42761;BME280;31672;47.638;19.026;2022-09-23T04:54:03;100520.41;;;5.02;84.37
42761;BME280;31672;47.638;19.026;2022-09-23T04:59:06;100510.25;;;4.97;84.22
42761;BME280;31672;47.638;19.026;2022-09-23T05:04:10;100522.50;;;4.98;84.36
42761;BME280;31672;47.638;19.026;2022-09-23T05:09:16;100525.47;;;5.05;84.81
42761;BME280;31672;47.638;19.026;2022-09-23T05:14:19;100524.00;;;5.12;84.89
42761;BME280;31672;47.638;19.026;2022-09-23T05:19:21;100530.19;;;5.22;84.87
42761;BME280;31672;47.638;19.026;2022-09-23T05:24:24;100531.69;;;5.36;85.10
42761;BME280;31672;47.638;19.026;2022-09-23T05:29:27;100532.59;;;5.46;85.43
42761;BME280;31672;47.638;19.026;2022-09-23T05:34:30;100542.84;;;5.60;85.49
42761;BME280;31672;47.638;19.026;2022-09-23T05:39:33;100544.78;;;5.79;85.94
42761;BME280;31672;47.638;19.026;2022-09-23T05:44:36;100543.25;;;5.98;85.88
42761;BME280;31672;47.638;19.026;2022-09-23T05:49:39;100540.16;;;6.13;86.35
42761;BME280;31672;47.638;19.026;2022-09-23T05:55:01;100551.09;;;6.30;85.99
42761;BME280;31672;47.638;19.026;2022-09-23T06:00:04;100541.53;;;6.38;86.13
42761;BME280;31672;47.638;19.026;2022-09-23T06:05:07;100548.25;;;6.52;86.12
42761;BME280;31672;47.638;19.026;2022-09-23T06:10:10;100542.72;;;6.65;85.90
42761;BME280;31672;47.638;19.026;2022-09-23T06:15:13;100546.38;;;6.74;85.89
42761;BME280;31672;47.638;19.026;2022-09-23T06:20:15;100546.72;;;6.90;85.73
42761;BME280;31672;47.638;19.026;2022-09-23T06:25:18;100548.66;;;7.07;85.57
42761;BME280;31672;47.638;19.026;2022-09-23T06:30:21;100553.56;;;7.31;85.76
42761;BME280;31672;47.638;19.026;2022-09-23T06:35:26;100552.31;;;7.55;85.69
42761;BME280;31672;47.638;19.026;2022-09-23T06:40:29;100547.31;;;7.81;85.44
42761;BME280;31672;47.638;19.026;2022-09-23T06:45:32;100552.66;;;8.08;85.33
42761;BME280;31672;47.638;19.026;2022-09-23T06:50:36;100552.63;;;8.37;84.96
42761;BME280;31672;47.638;19.026;2022-09-23T06:55:38;100553.75;;;8.62;84.02
42761;BME280;31672;47.638;19.026;2022-09-23T07:00:42;100549.47;;;8.89;83.78
42761;BME280;31672;47.638;19.026;2022-09-23T07:05:45;100550.00;;;9.10;82.95
42761;BME280;31672;47.638;19.026;2022-09-23T07:10:55;100558.22;;;9.34;82.21
42761;BME280;31672;47.638;19.026;2022-09-23T07:15:59;100546.00;;;9.59;81.72
42761;BME280;31672;47.638;19.026;2022-09-23T07:21:05;100552.34;;;9.84;81.04
42761;BME280;31672;47.638;19.026;2022-09-23T07:26:08;100560.16;;;10.12;80.48
42761;BME280;31672;47.638;19.026;2022-09-23T07:31:15;100563.69;;;10.38;79.56
42761;BME280;31672;47.638;19.026;2022-09-23T07:36:30;100558.50;;;10.63;78.75
42761;BME280;31672;47.638;19.026;2022-09-23T07:41:34;100554.28;;;10.94;78.69
42761;BME280;31672;47.638;19.026;2022-09-23T07:46:37;100549.03;;;11.19;77.44
42761;BME280;31672;47.638;19.026;2022-09-23T07:51:41;100558.22;;;11.41;75.34
42761;BME280;31672;47.638;19.026;2022-09-23T07:56:47;100550.41;;;11.56;74.03
42761;BME280;31672;47.638;19.026;2022-09-23T08:01:50;100546.25;;;11.69;72.67
42761;BME280;31672;47.638;19.026;2022-09-23T08:06:59;100546.78;;;11.89;72.14
42761;BME280;31672;47.638;19.026;2022-09-23T08:12:02;100541.59;;;12.12;71.67
42761;BME280;31672;47.638;19.026;2022-09-23T08:17:05;100550.53;;;12.36;71.04
42761;BME280;31672;47.638;19.026;2022-09-23T08:22:08;100544.13;;;12.61;69.68
42761;BME280;31672;47.638;19.026;2022-09-23T08:27:10;100535.19;;;12.77;68.69
42761;BME280;31672;47.638;19.026;2022-09-23T08:32:14;100532.41;;;13.01;67.96
42761;BME280;31672;47.638;19.026;2022-09-23T08:37:16;100537.34;;;13.21;66.01
42761;BME280;31672;47.638;19.026;2022-09-23T08:42:23;100541.81;;;13.51;65.40
42761;BME280;31672;47.638;19.026;2022-09-23T08:47:52;100537.50;;;14.03;64.67
42761;BME280;31672;47.638;19.026;2022-09-23T08:53:06;100529.81;;;14.23;61.87
42761;BME280;31672;47.638;19.026;2022-09-23T09:03:49;100521.69;;;14.45;60.99
42761;BME280;31672;47.638;19.026;2022-09-23T09:08:58;100513.06;;;14.58;60.60
42761;BME280;31672;47.638;19.026;2022-09-23T09:14:18;100506.28;;;14.77;58.22
42761;BME280;31672;47.638;19.026;2022-09-23T09:19:52;100501.97;;;14.97;57.72
42761;BME280;31672;47.638;19.026;2022-09-23T09:24:58;100500.47;;;15.10;57.79
42761;BME280;31672;47.638;19.026;2022-09-23T09:30:04;100493.88;;;15.76;56.68
42761;BME280;31672;47.638;19.026;2022-09-23T09:35:17;100494.53;;;16.89;54.95
42761;BME280;31672;47.638;19.026;2022-09-23T09:40:22;100478.09;;;17.45;52.39
42761;BME280;31672;47.638;19.026;2022-09-23T09:50:51;100473.53;;;17.26;50.85
42761;BME280;31672;47.638;19.026;2022-09-23T10:01:07;100461.16;;;17.31;50.13
42761;BME280;31672;47.638;19.026;2022-09-23T10:06:19;100456.41;;;17.33;50.48
42761;BME280;31672;47.638;19.026;2022-09-23T10:11:22;100451.22;;;17.38;49.74
42761;BME280;31672;47.638;19.026;2022-09-23T10:16:26;100440.69;;;17.57;49.69
42761;BME280;31672;47.638;19.026;2022-09-23T10:21:35;100447.72;;;17.84;48.90
42761;BME280;31672;47.638;19.026;2022-09-23T10:26:44;100446.47;;;17.87;48.94
42761;BME280;31672;47.638;19.026;2022-09-23T10:54:37;100437.63;;;16.59;49.00
42761;BME280;31672;47.638;19.026;2022-09-23T10:59:55;100426.63;;;16.41;48.58
42761;BME280;31672;47.638;19.026;2022-09-23T11:05:17;100430.09;;;16.28;49.63
42761;BME280;31672;47.638;19.026;2022-09-23T11:31:38;100415.19;;;15.77;51.05
42761;BME280;31672;47.638;19.026;2022-09-23T11:41:54;100407.47;;;15.68;51.66
42761;BME280;31672;47.638;19.026;2022-09-23T12:03:04;100389.47;;;15.62;52.12
42761;BME280;31672;47.638;19.026;2022-09-23T12:13:42;100378.59;;;15.63;52.51
42761;BME280;31672;47.638;19.026;2022-09-23T12:25:06;100371.38;;;15.64;51.95
42761;BME280;31672;47.638;19.026;2022-09-23T12:30:23;100362.69;;;15.62;51.84
42761;BME280;31672;47.638;19.026;2022-09-23T12:35:31;100352.78;;;15.56;52.62
42761;BME280;31672;47.638;19.026;2022-09-23T12:40:37;100360.22;;;15.60;53.25
42761;BME280;31672;47.638;19.026;2022-09-23T12:45:43;100342.13;;;15.62;53.85
42761;BME280;31672;47.638;19.026;2022-09-23T12:51:04;100338.97;;;15.59;53.30
42761;BME280;31672;47.638;19.026;2022-09-23T12:56:17;100333.44;;;15.60;52.84
42761;BME280;31672;47.638;19.026;2022-09-23T13:01:21;100333.72;;;15.65;53.09
42761;BME280;31672;47.638;19.026;2022-09-23T13:06:32;100331.25;;;15.70;54.17
42761;BME280;31672;47.638;19.026;2022-09-23T13:11:41;100325.09;;;15.76;53.00
42761;BME280;31672;47.638;19.026;2022-09-23T13:16:46;100320.78;;;15.82;52.79
42761;BME280;31672;47.638;19.026;2022-09-23T13:32:12;100311.34;;;15.93;52.74
42761;BME280;31672;47.638;19.026;2022-09-23T13:37:19;100308.09;;;15.97;52.28
42761;BME280;31672;47.638;19.026;2022-09-23T13:42:25;100308.72;;;16.06;51.34
42761;BME280;31672;47.638;19.026;2022-09-23T13:47:30;100308.94;;;16.11;50.90
42761;BME280;31672;47.638;19.026;2022-09-23T13:52:35;100304.41;;;16.12;50.45
42761;BME280;31672;47.638;19.026;2022-09-23T13:57:38;100307.09;;;16.12;50.47
42761;BME280;31672;47.638;19.026;2022-09-23T14:02:41;100294.94;;;16.16;51.02
42761;BME280;31672;47.638;19.026;2022-09-23T14:07:44;100294.34;;;16.20;50.67
42761;BME280;31672;47.638;19.026;2022-09-23T14:12:47;100289.00;;;16.27;50.65
42761;BME280;31672;47.638;19.026;2022-09-23T14:18:01;100290.22;;;16.31;50.69
42761;BME280;31672;47.638;19.026;2022-09-23T14:23:13;100278.69;;;16.37;49.56
42761;BME280;31672;47.638;19.026;2022-09-23T14:28:18;100266.13;;;16.44;49.05
42761;BME280;31672;47.638;19.026;2022-09-23T14:33:25;100281.00;;;16.53;48.90
42761;BME280;31672;47.638;19.026;2022-09-23T14:38:28;100272.75;;;16.62;49.34
42761;BME280;31672;47.638;19.026;2022-09-23T14:43:58;100273.16;;;16.65;48.19
42761;BME280;31672;47.638;19.026;2022-09-23T14:49:19;100267.19;;;16.56;47.05
42761;BME280;31672;47.638;19.026;2022-09-23T14:59:34;100255.84;;;16.68;47.32
42761;BME280;31672;47.638;19.026;2022-09-23T15:04:37;100253.56;;;16.91;47.25
42761;BME280;31672;47.638;19.026;2022-09-23T15:09:40;100253.28;;;17.39;45.50
42761;BME280;31672;47.638;19.026;2022-09-23T15:14:47;100261.50;;;18.09;44.62
42761;BME280;31672;47.638;19.026;2022-09-23T15:19:54;100237.88;;;18.49;44.03
42761;BME280;31672;47.638;19.026;2022-09-23T15:30:22;100240.94;;;18.53;43.11
42761;BME280;31672;47.638;19.026;2022-09-23T15:35:25;100237.47;;;18.45;43.22
42761;BME280;31672;47.638;19.026;2022-09-23T15:40:31;100239.84;;;18.29;44.34
42761;BME280;31672;47.638;19.026;2022-09-23T15:45:35;100238.94;;;18.10;45.43
42761;BME280;31672;47.638;19.026;2022-09-23T15:50:40;100248.00;;;17.84;46.80
42761;BME280;31672;47.638;19.026;2022-09-23T15:55:44;100242.91;;;17.56;47.42
42761;BME280;31672;47.638;19.026;2022-09-23T16:00:47;100256.22;;;17.24;48.51
42761;BME280;31672;47.638;19.026;2022-09-23T16:05:59;100242.66;;;16.93;49.16
42761;BME280;31672;47.638;19.026;2022-09-23T16:11:02;100257.66;;;16.67;49.68
42761;BME280;31672;47.638;19.026;2022-09-23T16:16:07;100261.78;;;16.37;50.51
42761;BME280;31672;47.638;19.026;2022-09-23T16:21:14;100265.66;;;16.14;51.42
42761;BME280;31672;47.638;19.026;2022-09-23T16:26:22;100261.91;;;15.95;52.42
42761;BME280;31672;47.638;19.026;2022-09-23T16:31:26;100263.06;;;15.73;52.65
42761;BME280;31672;47.638;19.026;2022-09-23T16:36:35;100263.94;;;15.52;53.58
42761;BME280;31672;47.638;19.026;2022-09-23T16:41:39;100260.72;;;15.29;54.43
42761;BME280;31672;47.638;19.026;2022-09-23T16:46:44;100264.31;;;15.08;55.31
42761;BME280;31672;47.638;19.026;2022-09-23T16:51:46;100274.22;;;14.86;56.47
42761;BME280;31672;47.638;19.026;2022-09-23T16:56:49;100271.34;;;14.59;57.31
42761;BME280;31672;47.638;19.026;2022-09-23T17:01:54;100273.16;;;14.37;57.51
42761;BME280;31672;47.638;19.026;2022-09-23T17:07:15;100276.56;;;14.10;58.21
42761;BME280;31672;47.638;19.026;2022-09-23T17:12:26;100269.19;;;13.76;58.92
42761;BME280;31672;47.638;19.026;2022-09-23T17:17:32;100262.56;;;13.42;59.61
42761;BME280;31672;47.638;19.026;2022-09-23T17:22:39;100275.66;;;13.22;60.16
42761;BME280;31672;47.638;19.026;2022-09-23T17:27:42;100276.69;;;12.98;60.68
42761;BME280;31672;47.638;19.026;2022-09-23T17:32:44;100278.56;;;12.75;61.21
42761;BME280;31672;47.638;19.026;2022-09-23T17:37:48;100287.06;;;12.55;61.17
42761;BME280;31672;47.638;19.026;2022-09-23T17:42:51;100288.38;;;12.37;61.04
42761;BME280;31672;47.638;19.026;2022-09-23T17:47:56;100285.88;;;12.12;60.95
42761;BME280;31672;47.638;19.026;2022-09-23T17:52:59;100293.94;;;11.96;61.37
42761;BME280;31672;47.638;19.026;2022-09-23T17:58:02;100289.47;;;11.80;61.96
42761;BME280;31672;47.638;19.026;2022-09-23T18:03:04;100297.56;;;11.64;62.56
42761;BME280;31672;47.638;19.026;2022-09-23T18:08:07;100299.59;;;11.45;62.81
42761;BME280;31672;47.638;19.026;2022-09-23T18:13:10;100298.31;;;11.25;63.13
42761;BME280;31672;47.638;19.026;2022-09-23T18:18:13;100307.84;;;11.11;63.37
42761;BME280;31672;47.638;19.026;2022-09-23T18:23:15;100297.72;;;10.98;63.30
42761;BME280;31672;47.638;19.026;2022-09-23T18:28:18;100293.75;;;10.86;63.15
42761;BME280;31672;47.638;19.026;2022-09-23T18:33:24;100301.22;;;10.75;63.27
42761;BME280;31672;47.638;19.026;2022-09-23T18:38:26;100302.38;;;10.64;63.22
42761;BME280;31672;47.638;19.026;2022-09-23T18:43:30;100302.69;;;10.53;63.17
42761;BME280;31672;47.638;19.026;2022-09-23T18:48:41;100309.31;;;10.40;63.45
42761;BME280;31672;47.638;19.026;2022-09-23T18:54:04;100318.78;;;10.27;63.62
42761;BME280;31672;47.638;19.026;2022-09-23T18:59:11;100313.91;;;10.14;63.87
42761;BME280;31672;47.638;19.026;2022-09-23T19:04:18;100318.81;;;10.01;64.10
42761;BME280;31672;47.638;19.026;2022-09-23T19:09:21;100320.63;;;9.92;64.36
42761;BME280;31672;47.638;19.026;2022-09-23T19:14:24;100316.44;;;9.81;64.70
42761;BME280;31672;47.638;19.026;2022-09-23T19:19:28;100315.72;;;9.71;64.72
42761;BME280;31672;47.638;19.026;2022-09-23T19:24:31;100314.03;;;9.62;64.63
42761;BME280;31672;47.638;19.026;2022-09-23T19:29:34;100318.97;;;9.57;64.53
42761;BME280;31672;47.638;19.026;2022-09-23T19:34:39;100308.84;;;9.52;64.47
42761;BME280;31672;47.638;19.026;2022-09-23T19:39:41;100307.97;;;9.44;64.61
42761;BME280;31672;47.638;19.026;2022-09-23T19:44:44;100315.72;;;9.37;64.85
42761;BME280;31672;47.638;19.026;2022-09-23T19:49:47;100312.88;;;9.30;64.93
42761;BME280;31672;47.638;19.026;2022-09-23T19:54:50;100312.81;;;9.22;64.78
42761;BME280;31672;47.638;19.026;2022-09-23T19:59:53;100318.06;;;9.14;65.17
42761;BME280;31672;47.638;19.026;2022-09-23T20:04:55;100314.38;;;9.07;65.06
42761;BME280;31672;47.638;19.026;2022-09-23T20:09:58;100318.78;;;8.98;65.49
42761;BME280;31672;47.638;19.026;2022-09-23T20:15:01;100325.53;;;8.93;65.95
42761;BME280;31672;47.638;19.026;2022-09-23T20:20:05;100312.88;;;8.87;66.87
42761;BME280;31672;47.638;19.026;2022-09-23T20:25:08;100318.97;;;8.79;67.01
42761;BME280;31672;47.638;19.026;2022-09-23T20:30:15;100315.44;;;8.70;67.18
42761;BME280;31672;47.638;19.026;2022-09-23T20:35:17;100315.94;;;8.56;67.43
42761;BME280;31672;47.638;19.026;2022-09-23T20:40:20;100316.34;;;8.43;67.55
42761;BME280;31672;47.638;19.026;2022-09-23T20:45:24;100310.41;;;8.31;67.99
42761;BME280;31672;47.638;19.026;2022-09-23T20:50:27;100325.06;;;8.26;68.63
42761;BME280;31672;47.638;19.026;2022-09-23T20:55:30;100312.44;;;8.20;69.33
42761;BME280;31672;47.638;19.026;2022-09-23T21:00:33;100318.16;;;8.15;69.54
42761;BME280;31672;47.638;19.026;2022-09-23T21:05:37;100312.63;;;8.09;69.85
42761;BME280;31672;47.638;19.026;2022-09-23T21:10:52;100316.41;;;8.06;70.61
42761;BME280;31672;47.638;19.026;2022-09-23T21:16:00;100318.41;;;8.04;70.69
42761;BME280;31672;47.638;19.026;2022-09-23T21:21:03;100316.34;;;7.98;70.76
42761;BME280;31672;47.638;19.026;2022-09-23T21:26:11;100320.25;;;7.94;71.07
42761;BME280;31672;47.638;19.026;2022-09-23T21:31:20;100325.06;;;7.81;71.09
42761;BME280;31672;47.638;19.026;2022-09-23T21:36:28;100324.53;;;7.67;71.16
42761;BME280;31672;47.638;19.026;2022-09-23T21:41:32;100325.72;;;7.55;71.46
42761;BME280;31672;47.638;19.026;2022-09-23T21:46:35;100319.09;;;7.41;71.70
42761;BME280;31672;47.638;19.026;2022-09-23T21:51:39;100322.75;;;7.31;72.06
42761;BME280;31672;47.638;19.026;2022-09-23T21:56:43;100314.97;;;7.19;72.15
42761;BME280;31672;47.638;19.026;2022-09-23T22:01:45;100319.88;;;7.14;72.28
42761;BME280;31672;47.638;19.026;2022-09-23T22:06:55;100317.50;;;7.11;72.37
42761;BME280;31672;47.638;19.026;2022-09-23T22:11:58;100328.38;;;7.08;72.50
42761;BME280;31672;47.638;19.026;2022-09-23T22:17:09;100327.81;;;7.05;72.86
42761;BME280;31672;47.638;19.026;2022-09-23T22:22:14;100317.66;;;7.00;73.13
42761;BME280;31672;47.638;19.026;2022-09-23T22:27:18;100320.72;;;6.95;73.43
42761;BME280;31672;47.638;19.026;2022-09-23T22:32:21;100330.91;;;6.90;73.66
42761;BME280;31672;47.638;19.026;2022-09-23T22:37:36;100332.00;;;6.88;74.00
42761;BME280;31672;47.638;19.026;2022-09-23T22:42:40;100334.53;;;6.80;74.24
42761;BME280;31672;47.638;19.026;2022-09-23T22:47:43;100332.59;;;6.72;74.32
42761;BME280;31672;47.638;19.026;2022-09-23T22:52:47;100331.75;;;6.62;74.51
42761;BME280;31672;47.638;19.026;2022-09-23T22:57:50;100328.13;;;6.53;74.74
42761;BME280;31672;47.638;19.026;2022-09-23T23:02:53;100333.69;;;6.50;75.40
42761;BME280;31672;47.638;19.026;2022-09-23T23:07:56;100338.00;;;6.51;75.63
42761;BME280;31672;47.638;19.026;2022-09-23T23:12:59;100336.34;;;6.50;76.10
42761;BME280;31672;47.638;19.026;2022-09-23T23:18:02;100329.50;;;6.48;75.75
42761;BME280;31672;47.638;19.026;2022-09-23T23:23:04;100322.84;;;6.43;75.62
42761;BME280;31672;47.638;19.026;2022-09-23T23:28:07;100325.22;;;6.37;75.71
42761;BME280;31672;47.638;19.026;2022-09-23T23:33:10;100325.78;;;6.31;75.58
42761;BME280;31672;47.638;19.026;2022-09-23T23:38:13;100324.75;;;6.22;75.64
42761;BME280;31672;47.638;19.026;2022-09-23T23:43:15;100324.78;;;6.12;75.55
42761;BME280;31672;47.638;19.026;2022-09-23T23:48:18;100317.66;;;6.03;75.78
42761;BME280;31672;47.638;19.026;2022-09-23T23:53:22;100325.41;;;5.95;75.94
42761;BME280;31672;47.638;19.026;2022-09-23T23:58:25;100327.84;;;5.87;76.19
